Time;durP1;ratioP1;P1;durP2;ratioP2;P2;SDS_P1;SDS_P2;PMS_P1;PMS_P2;Temp;Humidity;BMP_temperature;BMP_pressure;BME280_temperature;BME280_humidity;BME280_pressure;Samples;Min_cycle;Max_cycle;Signal;HPM_P1;HPM_P2
2022/07/07 00:00:18;;;;;;;4.65;0.70;;;;;;;17.20;60.44;100852.41;2075274;28;20110;-77
2022/07/07 00:01:22;;;;;;;3.42;0.70;;;;;;;17.20;60.40;100852.41;2086835;28;20047;-77
2022/07/07 00:02:28;;;;;;;0.77;0.40;;;;;;;17.17;60.34;100858.47;2087340;28;20049;-77
2022/07/07 00:03:30;;;;;;;3.45;0.73;;;;;;;17.16;60.33;100862.31;2074665;28;20050;-78
2022/07/07 00:04:33;;;;;;;1.08;0.63;;;;;;;17.18;60.48;100860.09;2081368;28;20041;-77
2022/07/07 00:05:40;;;;;;;3.15;0.93;;;;;;;17.16;60.73;100856.88;2084463;28;20429;-77
2022/07/07 00:06:45;;;;;;;4.05;0.88;;;;;;;17.12;60.84;100858.63;2089346;28;20045;-78
2022/07/07 00:07:52;;;;;;;4.88;0.90;;;;;;;17.12;60.50;100855.91;2081732;28;20052;-78
2022/07/07 00:08:54;;;;;;;4.13;1.05;;;;;;;17.11;60.52;100848.84;2082520;28;20464;-79
2022/07/07 00:09:58;;;;;;;3.25;0.80;;;;;;;17.07;60.98;100856.03;2074520;28;20060;-77
2022/07/07 00:11:04;;;;;;;2.35;0.70;;;;;;;17.05;60.92;100861.78;2082008;28;20045;-79
2022/07/07 00:12:06;;;;;;;4.00;0.60;;;;;;;16.99;61.19;100856.81;2089871;28;20132;-78
2022/07/07 00:13:09;;;;;;;3.58;0.85;;;;;;;17.01;61.25;100858.09;2090229;28;20051;-71
2022/07/07 00:14:13;;;;;;;2.95;0.63;;;;;;;17.02;61.04;100862.41;2083197;28;20053;-78
2022/07/07 00:15:15;;;;;;;3.72;0.70;;;;;;;17.01;61.19;100854.59;2082616;28;20489;-78
2022/07/07 00:16:19;;;;;;;2.92;0.60;;;;;;;17.01;60.83;100854.59;2082210;28;20044;-78
2022/07/07 00:17:22;;;;;;;4.78;1.10;;;;;;;17.07;61.10;100847.91;2088628;28;20048;-79
2022/07/07 00:18:29;;;;;;;5.60;1.20;;;;;;;17.06;61.21;100851.75;2090118;28;20053;-79
2022/07/07 00:19:31;;;;;;;1.05;0.60;;;;;;;17.08;60.72;100854.91;2089777;28;20416;-78
2022/07/07 00:20:34;;;;;;;2.20;0.60;;;;;;;17.09;60.69;100851.09;2085181;28;20065;-78
2022/07/07 00:21:37;;;;;;;2.92;0.77;;;;;;;17.06;60.70;100857.97;2082548;28;20068;-78
2022/07/07 00:22:42;;;;;;;4.53;0.90;;;;;;;17.08;60.79;100844.84;2074846;28;20498;-78
2022/07/07 00:23:44;;;;;;;5.38;0.98;;;;;;;17.04;60.77;100849.31;2071565;28;20049;-78
2022/07/07 00:24:46;;;;;;;3.88;0.70;;;;;;;17.05;60.82;100850.91;2073784;28;20049;-78
2022/07/07 00:25:50;;;;;;;2.75;0.73;;;;;;;17.05;60.86;100847.41;2065908;28;20046;-78
2022/07/07 00:26:55;;;;;;;4.07;0.63;;;;;;;17.09;60.94;100846.47;2057033;28;20038;-79
2022/07/07 00:27:56;;;;;;;3.65;0.75;;;;;;;17.09;60.61;100846.47;2066561;28;20042;-80
2022/07/07 00:28:59;;;;;;;6.82;0.88;;;;;;;17.11;60.66;100844.22;2067799;28;20042;-79
2022/07/07 00:30:01;;;;;;;4.70;0.50;;;;;;;17.12;60.82;100845.84;2065665;28;20038;-78
2022/07/07 00:31:07;;;;;;;1.85;0.60;;;;;;;17.10;60.92;100848.06;2075460;28;20050;-78
2022/07/07 00:32:09;;;;;;;2.42;0.77;;;;;;;17.12;60.84;100845.03;2089700;28;20044;-76
2022/07/07 00:33:16;;;;;;;4.55;0.77;;;;;;;17.07;61.10;100854.13;2086771;28;20045;-76
2022/07/07 00:34:19;;;;;;;3.47;0.60;;;;;;;17.08;61.00;100854.91;2081834;28;20055;-79
2022/07/07 00:35:23;;;;;;;3.65;0.70;;;;;;;17.08;61.24;100849.50;2074397;28;20052;-78
2022/07/07 00:36:27;;;;;;;3.80;0.77;;;;;;;17.10;61.00;100842.63;2081899;28;20041;-78
2022/07/07 00:37:29;;;;;;;2.20;0.85;;;;;;;17.08;61.04;100839.41;2081977;28;20064;-79
2022/07/07 00:38:31;;;;;;;2.85;0.60;;;;;;;17.06;61.27;100843.59;2081153;28;20548;-78
2022/07/07 00:39:35;;;;;;;3.13;0.60;;;;;;;17.04;61.31;100840.38;2078748;28;20502;-78
2022/07/07 00:40:38;;;;;;;4.20;0.80;;;;;;;17.05;61.44;100844.69;2071906;28;20061;-81
2022/07/07 00:41:40;;;;;;;2.80;0.70;;;;;;;17.05;61.37;100841.97;2090224;28;20047;-78
2022/07/07 00:42:45;;;;;;;4.10;0.77;;;;;;;17.01;61.14;100844.50;2090330;28;20025;-78
2022/07/07 00:43:50;;;;;;;3.35;0.88;;;;;;;17.00;61.52;100850.28;2074385;28;20041;-78
2022/07/07 00:44:52;;;;;;;2.65;0.73;;;;;;;17.02;61.63;100837.97;2082514;28;20029;-77
2022/07/07 00:45:54;;;;;;;3.22;0.60;;;;;;;17.03;61.47;100838.78;2086818;28;20046;-76
2022/07/07 00:46:59;;;;;;;4.40;0.77;;;;;;;17.04;61.45;100838.44;2081997;28;20049;-74
2022/07/07 00:48:04;;;;;;;3.33;0.85;;;;;;;17.03;61.26;100833.34;2074714;28;20061;-76
2022/07/07 00:49:06;;;;;;;7.05;0.90;;;;;;;16.97;61.58;100838.13;2081957;28;20040;-77
2022/07/07 00:50:14;;;;;;;4.68;0.70;;;;;;;16.97;61.87;100840.84;2089728;28;20508;-76
2022/07/07 00:51:19;;;;;;;6.85;1.38;;;;;;;16.99;61.57;100835.06;2082427;28;20069;-78
2022/07/07 00:52:24;;;;;;;2.05;0.50;;;;;;;16.99;61.86;100832.34;2081805;28;20049;-76
2022/07/07 00:53:27;;;;;;;2.05;0.68;;;;;;;17.00;61.72;100834.78;2081878;28;20049;-75
2022/07/07 00:54:31;;;;;;;4.82;0.60;;;;;;;16.97;61.66;100837.31;2081863;28;20034;-75
2022/07/07 00:55:34;;;;;;;5.03;0.77;;;;;;;16.95;61.78;100826.75;2088507;28;20821;-76
2022/07/07 00:56:37;;;;;;;5.35;0.70;;;;;;;16.93;61.98;100831.72;2088607;28;20044;-77
2022/07/07 00:57:42;;;;;;;6.03;0.80;;;;;;;16.95;61.94;100834.09;2085369;28;20050;-77
2022/07/07 00:58:44;;;;;;;1.38;0.60;;;;;;;16.96;61.85;100832.97;2076290;28;20029;-75
2022/07/07 00:59:48;;;;;;;4.63;1.00;;;;;;;16.97;62.06;100824.53;2082137;28;20037;-75
2022/07/07 01:00:51;;;;;;;4.65;0.80;;;;;;;17.00;61.86;100829.34;2082742;28;20048;-75
2022/07/07 01:01:55;;;;;;;4.38;0.63;;;;;;;16.97;62.02;100827.25;2086089;28;20433;-76
2022/07/07 01:02:59;;;;;;;2.15;0.90;;;;;;;17.01;61.80;100824.69;2087822;28;20037;-75
2022/07/07 01:04:08;;;;;;;7.20;0.80;;;;;;;16.98;62.05;100828.06;2082522;28;20033;-78
2022/07/07 01:05:11;;;;;;;4.18;0.80;;;;;;;16.96;61.98;100816.69;2082338;28;20036;-77
2022/07/07 01:06:13;;;;;;;0.90;0.60;;;;;;;16.94;62.00;100824.38;2082599;28;20401;-77
2022/07/07 01:07:15;;;;;;;3.22;0.50;;;;;;;16.91;62.12;100817.66;2082834;28;20052;-78
2022/07/07 01:08:19;;;;;;;3.75;1.13;;;;;;;16.94;61.99;100816.22;2076077;28;20607;-77
2022/07/07 01:09:24;;;;;;;3.75;0.77;;;;;;;16.92;61.94;100813.81;2082180;28;20049;-77
2022/07/07 01:10:27;;;;;;;5.75;0.82;;;;;;;16.86;62.31;100815.84;2085141;28;20045;-76
2022/07/07 01:11:50;;;;;;;5.25;0.80;;;;;;;16.93;62.04;100826.28;2087773;28;20037;-77
2022/07/07 01:12:55;;;;;;;1.13;0.73;;;;;;;16.95;61.95;100817.81;2082399;28;20053;-77
2022/07/07 01:13:59;;;;;;;1.88;0.50;;;;;;;16.91;61.94;100817.66;2084010;28;20034;-77
2022/07/07 01:15:03;;;;;;;3.35;0.60;;;;;;;16.87;62.40;100811.25;2089958;28;20037;-77
2022/07/07 01:16:04;;;;;;;0.88;0.60;;;;;;;16.86;62.40;100807.72;2076154;28;20045;-75
2022/07/07 01:17:07;;;;;;;2.45;0.88;;;;;;;16.89;62.40;100817.94;2073473;28;20104;-77
2022/07/07 01:18:09;;;;;;;2.80;0.75;;;;;;;16.86;62.62;100823.22;2081766;28;20053;-77
2022/07/07 01:19:11;;;;;;;2.67;0.60;;;;;;;16.84;62.43;100818.09;2086217;28;20520;-76
2022/07/07 01:20:13;;;;;;;2.50;0.65;;;;;;;16.84;62.37;100812.69;2080516;28;20615;-78
2022/07/07 01:21:21;;;;;;;1.88;0.60;;;;;;;16.86;62.32;100813.13;2081722;28;20041;-78
2022/07/07 01:22:29;;;;;;;3.20;0.68;;;;;;;16.89;62.47;100809.00;2081897;28;20421;-78
2022/07/07 01:23:34;;;;;;;4.53;0.85;;;;;;;16.87;62.34;100806.63;2084826;28;20045;-78
2022/07/07 01:24:36;;;;;;;3.53;0.85;;;;;;;16.83;62.61;100811.06;2082061;28;20041;-78
2022/07/07 01:25:38;;;;;;;2.78;0.57;;;;;;;16.86;62.32;100810.44;2084696;28;20037;-79
2022/07/07 01:26:40;;;;;;;3.60;0.63;;;;;;;16.82;62.36;100804.03;2090471;28;20531;-78
2022/07/07 01:27:42;;;;;;;5.20;1.20;;;;;;;16.82;62.73;100814.09;2090628;28;20041;-78
2022/07/07 01:28:43;;;;;;;3.15;0.90;;;;;;;16.81;62.42;100807.88;2086546;28;20041;-79
2022/07/07 01:29:53;;;;;;;3.45;0.80;;;;;;;16.81;62.52;100796.22;2081586;28;20036;-78
2022/07/07 01:30:58;;;;;;;4.70;0.80;;;;;;;16.79;62.33;100809.28;2089645;28;20045;-79
2022/07/07 01:32:07;;;;;;;6.97;0.60;;;;;;;16.78;62.42;100803.06;2081580;28;20045;-78
2022/07/07 01:33:11;;;;;;;3.42;0.60;;;;;;;16.79;62.76;100804.66;2082091;28;20037;-79
2022/07/07 01:34:14;;;;;;;3.88;0.68;;;;;;;16.83;62.34;100800.19;2090582;28;20033;-79
2022/07/07 01:35:15;;;;;;;1.30;0.50;;;;;;;16.80;62.33;100809.00;2081463;28;20041;-79
2022/07/07 01:36:17;;;;;;;2.47;0.68;;;;;;;16.82;62.47;100804.03;2073437;28;20038;-79
2022/07/07 01:37:24;;;;;;;4.72;0.60;;;;;;;16.77;62.61;100806.91;2073189;28;20049;-78
2022/07/07 01:38:29;;;;;;;6.90;0.98;;;;;;;16.77;62.51;100806.09;2082961;28;20056;-78
2022/07/07 01:39:36;;;;;;;3.20;0.55;;;;;;;16.77;62.23;100811.50;2081838;28;20061;-78
2022/07/07 01:40:40;;;;;;;3.92;0.70;;;;;;;16.77;62.46;100787.91;2081442;28;20052;-80
2022/07/07 01:41:44;;;;;;;2.88;0.68;;;;;;;16.78;62.42;100803.06;2081333;28;20050;-79
2022/07/07 01:42:50;;;;;;;3.00;0.73;;;;;;;16.79;62.64;100799.22;2090638;28;20056;-81
2022/07/07 01:43:53;;;;;;;2.97;0.50;;;;;;;16.82;62.34;100798.59;2082688;28;20078;-81
2022/07/07 01:44:55;;;;;;;5.05;0.80;;;;;;;16.81;62.13;100796.22;2067930;28;20038;-80
2022/07/07 01:45:58;;;;;;;2.65;1.00;;;;;;;16.85;62.21;100797.97;2073863;28;20034;-82
2022/07/07 01:47:00;;;;;;;3.28;0.60;;;;;;;16.83;62.63;100800.19;2087645;28;20040;-79
2022/07/07 01:48:04;;;;;;;0.93;0.57;;;;;;;16.81;62.40;100797.00;2087310;28;20053;-79
2022/07/07 01:49:11;;;;;;;2.90;0.98;;;;;;;16.77;62.42;100795.22;2081721;28;20385;-77
2022/07/07 01:50:13;;;;;;;1.88;0.60;;;;;;;16.79;62.62;100799.22;2074684;28;20042;-78
2022/07/07 01:51:15;;;;;;;1.40;0.50;;;;;;;16.79;62.21;100791.09;2074440;28;20034;-78
2022/07/07 01:52:20;;;;;;;2.17;0.85;;;;;;;16.74;62.54;100791.22;2081612;28;20044;-78
2022/07/07 01:53:24;;;;;;;3.83;0.63;;;;;;;16.74;62.31;100801.25;2082182;28;20044;-78
2022/07/07 01:54:27;;;;;;;1.75;0.70;;;;;;;16.74;62.63;100795.81;2081021;28;20426;-77
2022/07/07 01:55:28;;;;;;;4.35;0.70;;;;;;;16.68;62.70;100795.19;2089586;28;20029;-77
2022/07/07 01:56:30;;;;;;;5.18;0.80;;;;;;;16.68;62.52;100798.69;2085729;28;20048;-78
2022/07/07 01:57:32;;;;;;;1.67;0.57;;;;;;;16.73;62.79;100794.22;2080506;28;21607;-77
2022/07/07 01:58:38;;;;;;;1.77;0.60;;;;;;;16.76;62.32;100797.13;2073161;28;20042;-78
2022/07/07 01:59:39;;;;;;;1.13;0.50;;;;;;;16.72;62.57;100796.16;2074244;28;20153;-79
2022/07/07 02:00:44;;;;;;;3.83;0.73;;;;;;;16.70;62.73;100792.94;2080641;28;20050;-81
2022/07/07 02:01:46;;;;;;;2.60;0.68;;;;;;;16.71;62.63;100791.84;2073577;28;20056;-79
2022/07/07 02:02:48;;;;;;;1.85;0.57;;;;;;;16.72;62.23;100788.00;2081773;28;20045;-79
2022/07/07 02:03:50;;;;;;;2.17;0.60;;;;;;;16.73;62.43;100786.88;2089934;28;20045;-79
2022/07/07 02:04:52;;;;;;;2.20;0.70;;;;;;;16.69;62.48;100794.06;2081165;28;20548;-79
2022/07/07 02:05:56;;;;;;;1.88;0.52;;;;;;;16.69;62.47;100800.28;2081381;28;20045;-79
2022/07/07 02:07:01;;;;;;;1.77;0.60;;;;;;;16.74;62.46;100795.81;2080894;28;20052;-78
2022/07/07 02:08:07;;;;;;;1.55;0.65;;;;;;;16.74;62.35;100795.81;2087562;28;20045;-77
2022/07/07 02:09:11;;;;;;;2.40;0.50;;;;;;;16.73;62.43;100789.59;2089216;28;20029;-76
2022/07/07 02:11:12;;;;;;;2.45;0.55;;;;;;;16.76;62.53;100789.00;2081660;28;20037;-77
2022/07/07 02:11:38;;;;;;;6.15;0.70;;;;;;;16.76;62.07;100793.63;2083770;28;20472;-79
2022/07/07 02:12:43;;;;;;;5.53;0.55;;;;;;;16.80;61.87;100795.41;2085407;28;20053;-78
2022/07/07 02:13:48;;;;;;;1.83;0.68;;;;;;;16.78;62.27;100786.78;2089498;28;20060;-78
2022/07/07 02:14:50;;;;;;;2.35;0.50;;;;;;;16.74;62.25;100788.50;2082096;28;20040;-77
2022/07/07 02:16:00;;;;;;;3.05;0.70;;;;;;;16.76;62.19;100783.56;2081999;28;20037;-77
2022/07/07 02:17:04;;;;;;;;;;;;;;;16.75;62.09;100792.84;2087695;28;20041;-78
2022/07/07 02:18:05;;;;;;;0.65;0.40;;;;;;;16.72;62.16;100796.16;2089324;28;19928;-77
2022/07/07 02:19:08;;;;;;;3.08;0.60;;;;;;;16.64;62.65;100794.19;2085814;28;20421;-77
2022/07/07 02:20:11;;;;;;;3.50;0.50;;;;;;;16.62;62.70;100791.00;2081162;28;20049;-78
2022/07/07 02:21:14;;;;;;;2.00;0.63;;;;;;;16.64;62.46;100789.56;2081996;28;20033;-77
2022/07/07 02:22:17;;;;;;;2.15;0.60;;;;;;;16.63;62.53;100790.66;2081683;28;20049;-78
2022/07/07 02:23:22;;;;;;;2.88;0.50;;;;;;;16.62;62.56;100788.28;2058971;28;20038;-77
2022/07/07 02:24:29;;;;;;;2.78;0.50;;;;;;;16.63;62.36;100789.88;2065792;28;20065;-77
2022/07/07 02:25:32;;;;;;;6.85;0.93;;;;;;;16.69;62.14;100784.00;2086197;28;20056;-77
2022/07/07 02:26:35;;;;;;;2.13;0.60;;;;;;;16.65;62.21;100788.47;2081926;28;20049;-78
2022/07/07 02:27:39;;;;;;;1.70;0.60;;;;;;;16.67;62.13;100782.69;2089496;28;20048;-78
2022/07/07 02:28:42;;;;;;;3.28;0.77;;;;;;;16.64;62.03;100791.47;2087563;28;20036;-78
2022/07/07 02:29:46;;;;;;;2.50;0.70;;;;;;;16.60;61.93;100785.06;2080891;28;20033;-78
2022/07/07 02:30:51;;;;;;;1.52;0.70;;;;;;;16.62;62.08;100783.66;2089160;28;20052;-77
2022/07/07 02:31:53;;;;;;;4.03;1.02;;;;;;;16.65;62.03;100783.03;2089059;28;20053;-79
2022/07/07 02:32:57;;;;;;;2.20;0.60;;;;;;;16.66;61.99;100794.69;2080304;28;20037;-79
2022/07/07 02:34:02;;;;;;;5.03;0.77;;;;;;;16.66;62.01;100789.25;2067056;28;20054;-79
2022/07/07 02:35:06;;;;;;;1.75;0.60;;;;;;;16.69;61.83;100788.63;2090257;28;20056;-78
2022/07/07 02:36:09;;;;;;;6.72;0.95;;;;;;;16.65;61.98;100788.47;2090499;28;20033;-79
2022/07/07 02:37:14;;;;;;;2.90;0.70;;;;;;;16.66;61.64;100795.47;2085993;28;20461;-78
2022/07/07 02:38:22;;;;;;;1.60;0.70;;;;;;;16.68;61.61;100784.31;2086565;28;20037;-79
2022/07/07 02:39:28;;;;;;;2.95;0.60;;;;;;;16.68;61.57;100781.59;2089382;28;20548;-79
2022/07/07 02:40:31;;;;;;;5.22;0.50;;;;;;;16.66;61.94;100781.09;2081929;28;20438;-78
2022/07/07 02:41:33;;;;;;;3.05;0.68;;;;;;;16.64;62.11;100792.25;2084096;28;20032;-77
2022/07/07 02:42:36;;;;;;;2.10;0.50;;;;;;;16.66;61.90;100789.25;2082154;28;20513;-78
2022/07/07 02:43:38;;;;;;;2.35;0.60;;;;;;;16.66;62.20;100778.41;2083545;28;20025;-79
2022/07/07 02:44:40;;;;;;;1.90;0.50;;;;;;;16.68;61.99;100785.13;2082728;28;20157;-78
2022/07/07 02:46:03;;;;;;;1.65;0.73;;;;;;;16.69;62.14;100784.00;2073523;28;20441;-78
2022/07/07 02:47:10;;;;;;;2.95;0.70;;;;;;;16.68;62.28;100792.47;2074685;28;20525;-78
2022/07/07 02:48:19;;;;;;;2.10;0.50;;;;;;;16.66;62.09;100783.81;2074425;28;20053;-79
2022/07/07 02:49:21;;;;;;;2.28;0.60;;;;;;;16.63;62.42;100782.53;2089582;28;20060;-79
2022/07/07 02:50:23;;;;;;;2.47;0.73;;;;;;;16.68;62.47;100781.59;2082554;28;20053;-79
2022/07/07 02:51:25;;;;;;;3.85;0.55;;;;;;;16.72;62.38;100779.84;2083508;28;20448;-79
2022/07/07 02:52:28;;;;;;;2.17;0.82;;;;;;;16.70;62.12;100776.66;2097339;28;20067;-79
2022/07/07 02:53:36;;;;;;;7.05;0.60;;;;;;;16.69;62.23;100788.63;2089554;28;20057;-80
2022/07/07 02:54:38;;;;;;;1.52;0.40;;;;;;;16.70;62.41;100782.06;2075267;28;20839;-79
2022/07/07 02:55:41;;;;;;;2.22;0.60;;;;;;;16.65;62.71;100783.03;2080796;28;20820;-79
2022/07/07 02:56:45;;;;;;;1.23;0.55;;;;;;;16.65;62.92;100782.22;2080557;28;20048;-79
2022/07/07 02:57:51;;;;;;;0.63;0.50;;;;;;;16.64;62.77;100786.84;2057510;28;20055;-79
2022/07/07 02:58:52;;;;;;;1.02;0.50;;;;;;;16.60;62.74;100777.72;2066406;28;20062;-79
2022/07/07 02:59:55;;;;;;;1.60;0.63;;;;;;;16.62;63.08;100788.28;2088160;28;20049;-79
2022/07/07 03:00:58;;;;;;;4.25;0.88;;;;;;;16.60;62.61;100779.66;2087789;28;20205;-79
2022/07/07 03:02:02;;;;;;;2.65;0.55;;;;;;;16.59;62.75;100784.28;2081270;28;20064;-81
2022/07/07 03:03:10;;;;;;;4.00;0.70;;;;;;;16.56;62.80;100778.69;2094830;28;20048;-79
2022/07/07 03:04:17;;;;;;;2.90;1.38;;;;;;;16.59;63.26;100780.78;2094664;28;20048;-78
2022/07/07 03:05:27;;;;;;;0.80;0.47;;;;;;;16.59;62.96;100787.00;2080999;28;20494;-78
2022/07/07 03:06:28;;;;;;;1.08;0.80;;;;;;;16.59;63.02;100780.78;2088362;28;20041;-79
2022/07/07 03:07:33;;;;;;;2.30;0.65;;;;;;;16.57;63.29;100781.06;2088334;28;22182;-78
2022/07/07 03:08:37;;;;;;;1.90;0.50;;;;;;;16.58;62.74;100776.44;2071498;28;20041;-78
2022/07/07 03:09:41;;;;;;;2.40;0.70;;;;;;;16.57;62.65;100775.63;2079796;28;20054;-79
2022/07/07 03:10:48;;;;;;;1.23;0.50;;;;;;;16.55;63.12;100772.44;2079220;28;20064;-79
2022/07/07 03:11:53;;;;;;;2.00;0.50;;;;;;;16.58;62.96;100771.81;2066460;28;20058;-79
2022/07/07 03:12:58;;;;;;;1.15;0.50;;;;;;;16.53;62.81;100780.09;2079645;28;20049;-78
2022/07/07 03:14:00;;;;;;;6.40;0.80;;;;;;;16.57;62.76;100775.63;2084757;28;20052;-79
2022/07/07 03:15:03;;;;;;;2.03;0.57;;;;;;;16.53;62.95;100774.66;2097372;28;20048;-79
2022/07/07 03:16:08;;;;;;;5.00;0.70;;;;;;;16.56;62.75;100779.47;2086607;28;20397;-78
2022/07/07 03:17:14;;;;;;;5.78;0.73;;;;;;;16.57;62.65;100781.06;2080322;28;20551;-79
2022/07/07 03:18:17;;;;;;;3.75;0.68;;;;;;;16.58;62.85;100776.44;2073551;28;20046;-79
2022/07/07 03:19:21;;;;;;;1.23;0.63;;;;;;;16.59;63.04;100772.63;2074055;28;20466;-78
2022/07/07 03:20:24;;;;;;;2.92;0.80;;;;;;;16.57;63.05;100772.13;2081449;28;20052;-79
2022/07/07 03:21:28;;;;;;;2.42;0.63;;;;;;;16.52;62.88;100778.50;2081092;28;20057;-78
2022/07/07 03:22:33;;;;;;;1.50;0.52;;;;;;;16.53;62.80;100773.88;2083088;28;20069;-78
2022/07/07 03:23:35;;;;;;;2.72;0.50;;;;;;;16.54;63.09;100775.47;2086433;28;20055;-78
2022/07/07 03:24:38;;;;;;;0.80;0.60;;;;;;;16.55;62.87;100772.44;2064202;28;20054;-77
2022/07/07 03:25:40;;;;;;;2.40;0.55;;;;;;;16.54;62.42;100775.47;2071244;28;20041;-77
2022/07/07 03:26:45;;;;;;;2.80;0.60;;;;;;;16.56;63.11;100774.03;2080997;28;20061;-78
2022/07/07 03:27:47;;;;;;;2.25;0.60;;;;;;;16.59;62.43;100772.63;2072927;28;20746;-78
2022/07/07 03:28:48;;;;;;;2.50;0.60;;;;;;;16.60;62.41;100766.88;2082691;28;20045;-78
2022/07/07 03:29:52;;;;;;;4.38;0.77;;;;;;;16.55;62.40;100766.19;2080832;28;20104;-78
2022/07/07 03:30:59;;;;;;;3.20;0.70;;;;;;;16.51;62.98;100774.16;2074664;28;20069;-78
2022/07/07 03:32:05;;;;;;;2.35;0.55;;;;;;;16.51;62.73;100770.66;2080348;28;20049;-78
2022/07/07 03:33:08;;;;;;;3.70;0.75;;;;;;;16.48;62.51;100768.56;2080618;28;20029;-78
2022/07/07 03:34:11;;;;;;;1.35;0.60;;;;;;;16.46;62.88;100768.91;2082043;28;20036;-81
2022/07/07 03:35:14;;;;;;;5.80;0.90;;;;;;;16.47;62.78;100780.56;2078457;28;20377;-80
2022/07/07 03:36:17;;;;;;;4.82;0.70;;;;;;;16.50;63.09;100769.06;2089402;28;20510;-77
2022/07/07 03:37:19;;;;;;;2.25;0.70;;;;;;;16.54;62.53;100765.41;2081905;28;20045;-77
2022/07/07 03:38:21;;;;;;;1.88;0.52;;;;;;;16.55;62.53;100763.50;2087144;28;20032;-77
2022/07/07 03:39:23;;;;;;;3.33;0.82;;;;;;;16.57;62.77;100763.97;2080700;28;20042;-77
2022/07/07 03:40:27;;;;;;;2.75;0.60;;;;;;;16.57;62.49;100766.69;2059374;28;20046;-78
2022/07/07 03:41:30;;;;;;;1.42;0.60;;;;;;;16.56;62.79;100765.91;2053501;28;20038;-77
2022/07/07 03:42:32;;;;;;;2.78;0.60;;;;;;;16.57;62.58;100763.97;2073400;28;20378;-78
2022/07/07 03:43:37;;;;;;;4.45;0.63;;;;;;;16.57;62.54;100763.97;2077569;28;20124;-78
2022/07/07 03:44:41;;;;;;;1.77;0.70;;;;;;;16.57;62.98;100764.78;2080853;28;20045;-77
2022/07/07 03:45:49;;;;;;;3.53;0.70;;;;;;;16.58;62.63;100762.84;2073748;28;20042;-78
2022/07/07 03:46:54;;;;;;;1.85;0.60;;;;;;;16.60;62.79;100763.34;2083435;28;20390;-78
2022/07/07 03:47:57;;;;;;;5.45;1.02;;;;;;;16.63;62.33;100757.31;2077367;28;20042;-79
2022/07/07 03:49:05;;;;;;;4.38;0.65;;;;;;;16.55;62.73;100761.59;2089918;28;20412;-79
2022/07/07 03:50:07;;;;;;;2.88;0.80;;;;;;;16.53;62.54;100758.38;2088678;28;20048;-79
2022/07/07 03:51:09;;;;;;;2.42;0.60;;;;;;;16.57;62.92;100762.06;2065712;28;20038;-79
2022/07/07 03:52:11;;;;;;;1.23;0.52;;;;;;;16.58;62.64;100765.56;2068132;28;20038;-79
2022/07/07 03:53:13;;;;;;;2.15;0.70;;;;;;;16.59;62.54;100761.75;2088099;28;20052;-80
2022/07/07 03:54:16;;;;;;;2.55;0.60;;;;;;;16.56;62.92;100762.41;2080399;28;20486;-79
2022/07/07 03:55:19;;;;;;;2.38;0.60;;;;;;;16.58;62.35;100763.69;2088399;28;20064;-80
2022/07/07 03:56:23;;;;;;;4.57;0.73;;;;;;;16.52;62.58;100766.81;2080127;28;20054;-78
2022/07/07 03:57:25;;;;;;;3.67;0.70;;;;;;;16.51;62.59;100757.88;2071634;28;20077;-77
2022/07/07 03:58:26;;;;;;;1.38;0.60;;;;;;;16.56;62.46;100756.97;2073234;28;20552;-78
2022/07/07 03:59:30;;;;;;;2.17;0.40;;;;;;;16.60;62.21;100763.34;2086099;28;20041;-79
2022/07/07 04:00:37;;;;;;;2.38;0.63;;;;;;;16.58;62.30;100754.72;2080673;28;20037;-78
2022/07/07 04:01:44;;;;;;;2.10;0.57;;;;;;;16.61;62.22;100749.50;2081437;28;20140;-78
2022/07/07 04:02:47;;;;;;;10.80;0.75;;;;;;;16.59;62.53;100750.91;2080909;28;20032;-78
2022/07/07 04:03:48;;;;;;;3.05;0.60;;;;;;;16.58;62.41;100752.00;2080759;28;20037;-77
2022/07/07 04:04:50;;;;;;;2.42;0.70;;;;;;;16.54;62.44;100746.41;2080796;28;20121;-78
2022/07/07 04:06:01;;;;;;;0.85;0.43;;;;;;;16.56;62.49;100744.19;2073236;28;20030;-80
2022/07/07 04:07:04;;;;;;;1.48;0.50;;;;;;;16.55;62.13;100742.59;2080848;28;20041;-78
2022/07/07 04:08:09;;;;;;;2.67;0.60;;;;;;;16.55;62.13;100745.31;2087255;28;20045;-77
2022/07/07 04:09:11;;;;;;;1.02;0.60;;;;;;;16.57;61.79;100751.22;2080696;28;20425;-71
2022/07/07 04:10:13;;;;;;;2.38;0.50;;;;;;;16.61;61.98;100749.50;2080322;28;20041;-77
2022/07/07 04:11:14;;;;;;;0.77;0.43;;;;;;;16.58;62.11;100749.28;2071977;28;20042;-76
2022/07/07 04:12:19;;;;;;;6.20;0.60;;;;;;;16.52;62.02;100745.13;2079924;28;20489;-76
2022/07/07 04:13:21;;;;;;;2.88;0.57;;;;;;;16.50;62.27;100750.06;2089489;28;20037;-77
2022/07/07 04:14:24;;;;;;;3.90;0.70;;;;;;;16.50;62.58;100747.34;2083332;28;20050;-76
2022/07/07 04:15:26;;;;;;;2.55;0.95;;;;;;;16.52;62.36;100743.22;2081476;28;20057;-77
2022/07/07 04:16:29;;;;;;;3.40;0.50;;;;;;;16.52;62.37;100747.81;2073228;28;20042;-77
2022/07/07 04:17:34;;;;;;;2.70;1.10;;;;;;;16.45;62.44;100749.06;2084301;28;20053;-77
2022/07/07 04:18:36;;;;;;;1.83;0.50;;;;;;;16.52;62.36;100745.94;2089436;28;20516;-79
2022/07/07 04:19:39;;;;;;;3.22;0.88;;;;;;;16.54;62.37;100748.31;2089567;28;20476;-77
2022/07/07 04:20:41;;;;;;;2.70;0.57;;;;;;;16.55;62.58;100745.31;2081651;28;20061;-76
2022/07/07 04:21:47;;;;;;;4.32;0.80;;;;;;;16.55;62.77;100744.50;2084430;28;20044;-77
2022/07/07 04:22:48;;;;;;;5.32;1.10;;;;;;;16.57;62.36;100744.97;2088303;28;20033;-78
2022/07/07 04:23:52;;;;;;;4.47;0.93;;;;;;;16.54;62.35;100732.03;2087128;28;20056;-76
2022/07/07 04:24:57;;;;;;;2.05;0.73;;;;;;;16.54;62.56;100737.47;2089571;28;20595;-77
2022/07/07 04:26:02;;;;;;;4.40;0.90;;;;;;;16.53;62.56;100733.16;2088430;28;20056;-78
2022/07/07 04:27:05;;;;;;;1.77;0.50;;;;;;;16.56;62.26;100737.97;2072350;28;20041;-78
2022/07/07 04:28:09;;;;;;;1.10;0.60;;;;;;;16.55;62.49;100737.16;2072432;28;20060;-77
2022/07/07 04:29:12;;;;;;;1.30;0.65;;;;;;;16.50;62.81;100741.94;2071407;28;20394;-75
2022/07/07 04:30:17;;;;;;;2.88;0.73;;;;;;;16.48;62.74;100738.72;2080921;28;20402;-77
2022/07/07 04:31:19;;;;;;;2.63;0.73;;;;;;;16.52;62.58;100739.69;2080531;28;20048;-78
2022/07/07 04:32:20;;;;;;;1.65;0.63;;;;;;;16.53;62.23;100736.66;2088705;28;20506;-78
2022/07/07 04:33:25;;;;;;;3.05;0.60;;;;;;;16.52;62.34;100740.50;2088353;28;20064;-78
2022/07/07 04:34:27;;;;;;;1.35;0.85;;;;;;;16.55;62.34;100734.44;2082130;28;20053;-78
2022/07/07 04:35:30;;;;;;;1.67;0.73;;;;;;;16.51;62.35;100738.88;2089180;28;20033;-81
2022/07/07 04:36:32;;;;;;;2.13;0.70;;;;;;;16.53;62.34;100741.31;2076491;28;20037;-79
2022/07/07 04:37:37;;;;;;;3.00;0.60;;;;;;;16.51;62.27;100735.38;2072846;28;20528;-81
2022/07/07 04:38:45;;;;;;;3.40;0.70;;;;;;;16.49;62.67;100734.88;2075916;28;20042;-82
2022/07/07 04:39:47;;;;;;;1.33;0.47;;;;;;;16.50;62.48;100740.00;2090048;28;20041;-81
2022/07/07 04:40:52;;;;;;;1.50;0.60;;;;;;;16.50;62.48;100741.94;2088206;28;20044;-79
2022/07/07 04:41:56;;;;;;;3.72;0.73;;;;;;;16.50;62.14;100736.50;2077445;28;20057;-75
2022/07/07 04:42:59;;;;;;;1.30;0.50;;;;;;;16.54;62.03;100738.25;2087359;28;20049;-74
2022/07/07 04:44:01;;;;;;;2.10;0.70;;;;;;;16.62;62.18;100734.00;2090428;28;20081;-74
2022/07/07 04:45:05;;;;;;;3.40;0.80;;;;;;;16.64;61.75;100739.88;2087859;28;20041;-73
2022/07/07 04:46:10;;;;;;;1.40;0.60;;;;;;;16.57;61.71;100742.28;2070834;28;20042;-73
2022/07/07 04:47:12;;;;;;;1.25;0.80;;;;;;;16.62;62.16;100744.84;2073199;28;20042;-70
2022/07/07 04:48:17;;;;;;;5.13;0.95;;;;;;;16.62;61.89;100739.44;2096729;28;20056;-73
2022/07/07 04:49:23;;;;;;;2.10;0.43;;;;;;;16.67;61.48;100741.97;2097070;28;20040;-72
2022/07/07 04:50:24;;;;;;;1.63;0.60;;;;;;;16.69;61.45;100737.84;2086775;28;20048;-73
2022/07/07 04:51:31;;;;;;;4.80;0.70;;;;;;;16.66;61.83;100734.97;2087132;28;20049;-73
2022/07/07 04:52:35;;;;;;;3.30;0.60;;;;;;;16.74;61.20;100745.06;2096615;28;20044;-73
2022/07/07 04:53:39;;;;;;;3.58;0.82;;;;;;;16.76;61.39;100740.13;2085870;28;20037;-74
2022/07/07 04:54:41;;;;;;;3.53;0.63;;;;;;;16.76;61.75;100739.31;2085738;28;20060;-73
2022/07/07 04:55:47;;;;;;;2.13;0.47;;;;;;;16.75;61.59;100737.69;2097014;28;20578;-74
2022/07/07 04:56:52;;;;;;;6.72;1.00;;;;;;;16.76;61.60;100734.69;2077075;28;20041;-73